createdAt,value
2023-01-04T00:02:58.191Z,0.40
2023-01-04T00:06:04.358Z,0.30
2023-01-04T00:09:09.966Z,0.30
2023-01-04T00:12:17.693Z,0.20
2023-01-04T00:15:23.884Z,0.40
2023-01-04T00:18:29.063Z,0.40
2023-01-04T00:21:34.811Z,0.25
2023-01-04T00:24:40.112Z,0.70
2023-01-04T00:27:48.345Z,0.38
2023-01-04T00:30:53.454Z,0.63
2023-01-04T00:33:59.695Z,1.98
2023-01-04T00:37:05.057Z,2.65
2023-01-04T00:40:10.912Z,4.68
2023-01-04T00:43:20.215Z,3.03
2023-01-04T00:46:25.674Z,5.18
2023-01-04T00:49:31.020Z,4.20
2023-01-04T00:52:36.445Z,4.10
2023-01-04T00:55:41.628Z,4.75
2023-01-04T00:58:49.839Z,5.95
2023-01-04T01:01:58.494Z,4.95
2023-01-04T01:05:04.263Z,5.10
2023-01-04T01:08:21.624Z,4.57
2023-01-04T01:11:27.398Z,2.60
2023-01-04T01:14:35.555Z,8.25
2023-01-04T01:17:41.079Z,3.33
2023-01-04T01:20:47.295Z,5.05
2023-01-04T01:23:52.847Z,4.95
2023-01-04T01:26:58.471Z,6.05
2023-01-04T01:30:06.355Z,4.35
2023-01-04T01:33:12.107Z,5.20
2023-01-04T01:36:18.241Z,2.90
2023-01-04T01:39:24.008Z,6.13
2023-01-04T01:42:29.129Z,6.25
2023-01-04T01:45:37.747Z,3.10
2023-01-04T01:48:43.898Z,4.72
2023-01-04T01:51:49.266Z,6.95
2023-01-04T01:54:57.622Z,4.70
2023-01-04T01:58:04.115Z,4.30
2023-01-04T02:01:12.749Z,5.25
2023-01-04T02:04:18.748Z,4.90
2023-01-04T02:07:25.784Z,5.40
2023-01-04T02:10:31.445Z,4.28
2023-01-04T02:13:49.666Z,4.22
2023-01-04T02:20:37.441Z,5.60
2023-01-04T02:24:04.914Z,5.65
2023-01-04T02:27:25.040Z,5.03
2023-01-04T02:30:45.540Z,6.78
2023-01-04T02:33:57.612Z,5.88
2023-01-04T02:37:08.040Z,5.35
2023-01-04T02:40:19.321Z,5.35
2023-01-04T02:43:42.538Z,6.20
2023-01-04T02:46:50.139Z,7.43
2023-01-04T02:50:10.141Z,5.27
2023-01-04T02:53:16.660Z,7.22
2023-01-04T02:56:35.951Z,5.20
2023-01-04T02:59:53.273Z,7.00
2023-01-04T03:03:21.446Z,4.80
2023-01-04T03:06:36.105Z,4.15
2023-01-04T03:09:43.322Z,5.38
2023-01-04T03:12:51.058Z,5.13
2023-01-04T03:15:57.348Z,4.95
2023-01-04T03:19:09.935Z,4.85
2023-01-04T03:22:32.287Z,4.15
2023-01-04T03:25:53.868Z,3.90
2023-01-04T03:29:13.320Z,3.80
2023-01-04T03:32:35.093Z,4.03
2023-01-04T03:35:46.345Z,4.70
2023-01-04T03:39:10.167Z,3.38
2023-01-04T03:42:31.171Z,5.13
2023-01-04T03:45:49.812Z,5.28
2023-01-04T03:48:57.737Z,3.88
2023-01-04T03:52:06.100Z,4.00
2023-01-04T03:55:14.980Z,4.53
2023-01-04T03:58:22.138Z,4.30
2023-01-04T04:01:28.514Z,3.75
2023-01-04T04:04:46.403Z,4.88
2023-01-04T04:08:04.029Z,5.40
2023-01-04T04:11:24.309Z,4.20
2023-01-04T04:14:29.718Z,6.13
2023-01-04T04:17:35.287Z,3.63
2023-01-04T04:20:40.371Z,4.97
2023-01-04T04:23:45.933Z,5.65
2023-01-04T04:26:54.767Z,3.92
2023-01-04T04:30:00.505Z,4.22
2023-01-04T04:33:05.715Z,6.15
2023-01-04T04:36:12.101Z,5.22
2023-01-04T04:39:17.259Z,2.42
2023-01-04T04:42:22.712Z,3.28
2023-01-04T04:45:27.964Z,2.17
2023-01-04T04:48:33.251Z,4.70
2023-01-04T04:51:39.255Z,5.40
2023-01-04T04:54:44.779Z,5.63
2023-01-04T04:57:52.520Z,2.85
2023-01-04T05:00:58.658Z,5.18
2023-01-04T05:04:03.878Z,6.65
2023-01-04T05:07:12.431Z,2.55
2023-01-04T05:10:18.072Z,5.95
2023-01-04T05:13:23.781Z,3.45
2023-01-04T05:16:29.213Z,4.30
2023-01-04T05:19:34.658Z,3.25
2023-01-04T05:22:41.216Z,6.20
2023-01-04T05:25:46.944Z,3.13
2023-01-04T05:28:54.919Z,3.55
2023-01-04T05:31:57.686Z,2.80
2023-01-04T05:35:03.096Z,3.85
2023-01-04T05:38:08.687Z,4.50
2023-01-04T05:41:26.333Z,2.25
2023-01-04T05:44:34.551Z,3.50
2023-01-04T05:47:40.373Z,2.90
2023-01-04T05:50:46.040Z,6.05
2023-01-04T05:53:51.473Z,4.25
2023-01-04T05:56:56.875Z,1.92
2023-01-04T06:00:05.400Z,3.88
2023-01-04T06:03:17.805Z,3.42
2023-01-04T06:06:23.119Z,2.70
2023-01-04T06:09:28.570Z,3.97
2023-01-04T06:12:33.910Z,3.58
2023-01-04T06:15:43.317Z,2.72
2023-01-04T06:18:48.813Z,3.80
2023-01-04T06:21:55.070Z,4.47
2023-01-04T06:25:00.236Z,2.80
2023-01-04T06:28:05.987Z,3.00
2023-01-04T06:31:14.683Z,2.45
2023-01-04T06:34:22.880Z,3.03
2023-01-04T06:37:32.278Z,7.22
2023-01-04T06:40:38.006Z,3.78
2023-01-04T06:43:43.407Z,2.83
2023-01-04T06:46:51.560Z,3.50
2023-01-04T06:49:56.897Z,3.00
2023-01-04T06:53:02.208Z,2.53
2023-01-04T06:56:08.344Z,3.35
2023-01-04T06:59:13.899Z,3.90
2023-01-04T07:02:22.356Z,3.90
2023-01-04T07:05:28.103Z,4.85
2023-01-04T07:08:33.578Z,4.53
2023-01-04T07:11:39.192Z,4.18
2023-01-04T07:14:44.274Z,3.22
2023-01-04T07:17:53.566Z,3.60
2023-01-04T07:20:58.782Z,3.88
2023-01-04T07:24:04.462Z,3.17
2023-01-04T07:27:10.052Z,3.60
2023-01-04T07:30:16.347Z,3.75
2023-01-04T07:33:24.241Z,6.25
2023-01-04T07:36:29.906Z,8.20
2023-01-04T07:39:35.464Z,4.15
2023-01-04T07:42:41.157Z,3.97
2023-01-04T07:45:47.362Z,4.15
2023-01-04T07:48:55.510Z,8.77
2023-01-04T07:52:00.781Z,7.50
2023-01-04T07:55:06.454Z,9.82
2023-01-04T07:58:11.926Z,8.27
2023-01-04T08:01:18.628Z,11.57
2023-01-04T08:04:34.427Z,11.10
2023-01-04T08:07:40.711Z,11.95
2023-01-04T08:10:45.979Z,13.88
2023-01-04T08:13:51.433Z,11.18
2023-01-04T08:16:57.134Z,9.85
2023-01-04T08:20:04.848Z,12.05
2023-01-04T08:23:10.346Z,13.23
2023-01-04T08:26:17.043Z,14.73
2023-01-04T08:29:22.630Z,13.38
2023-01-04T08:32:28.234Z,13.93
2023-01-04T08:35:36.112Z,15.52
2023-01-04T08:42:19.235Z,18.48
2023-01-04T08:45:25.869Z,18.77
2023-01-04T08:48:31.319Z,16.95
2023-01-04T08:51:39.309Z,20.75
2023-01-04T08:54:44.844Z,16.00
2023-01-04T08:57:50.536Z,13.65
2023-01-04T09:00:55.893Z,19.70
2023-01-04T09:04:01.208Z,16.50
2023-01-04T09:07:09.300Z,13.93
2023-01-04T09:13:20.515Z,15.25
2023-01-04T09:16:26.338Z,14.65
2023-01-04T09:19:31.624Z,15.75
2023-01-04T09:22:39.910Z,14.43
2023-01-04T09:25:45.169Z,14.38
2023-01-04T09:28:50.938Z,10.70
2023-01-04T09:31:56.592Z,14.40
2023-01-04T09:35:02.360Z,18.15
2023-01-04T09:38:11.386Z,12.57
2023-01-04T09:41:23.951Z,13.38
2023-01-04T09:45:03.233Z,12.95
2023-01-04T09:48:02.960Z,10.10
2023-01-04T09:51:09.386Z,8.32
2023-01-04T09:54:20.920Z,12.50
2023-01-04T09:57:27.640Z,11.27
2023-01-04T10:00:40.238Z,15.18
2023-01-04T10:03:53.540Z,9.35
2023-01-04T10:07:04.676Z,11.10
2023-01-04T10:10:16.810Z,13.10
2023-01-04T10:13:27.458Z,11.35
2023-01-04T10:17:12.311Z,12.63
2023-01-04T10:23:56.803Z,12.85
2023-01-04T10:27:09.419Z,16.75
2023-01-04T10:30:22.728Z,11.20
2023-01-04T10:33:32.638Z,14.30
2023-01-04T10:36:38.379Z,13.55
2023-01-04T10:39:44.082Z,11.80
2023-01-04T10:42:57.333Z,10.73
2023-01-04T10:46:05.685Z,10.27
2023-01-04T10:49:14.069Z,8.32
2023-01-04T10:52:21.966Z,9.00
2023-01-04T10:55:30.712Z,9.90
2023-01-04T10:58:42.193Z,6.50
2023-01-04T11:01:51.685Z,8.73
2023-01-04T11:05:01.171Z,9.10
2023-01-04T11:08:09.276Z,6.88
2023-01-04T11:11:16.778Z,8.45
2023-01-04T11:14:25.638Z,8.07
2023-01-04T11:17:31.825Z,5.22
2023-01-04T11:20:38.519Z,5.35
2023-01-04T11:23:44.212Z,5.03
2023-01-04T11:26:50.975Z,6.45
2023-01-04T11:30:01.396Z,3.97
2023-01-04T11:33:14.259Z,10.15
2023-01-04T11:36:35.056Z,3.15
2023-01-04T11:39:40.185Z,2.65
2023-01-04T11:42:45.687Z,2.72
2023-01-04T11:46:01.041Z,3.42
2023-01-04T11:49:06.486Z,5.93
2023-01-04T11:52:31.091Z,4.03
2023-01-04T11:55:36.590Z,3.58
2023-01-04T11:58:42.588Z,4.30
2023-01-04T12:01:52.006Z,3.10
2023-01-04T12:04:57.501Z,2.63
2023-01-04T12:08:02.729Z,4.57
2023-01-04T12:11:09.320Z,3.50
2023-01-04T12:14:21.312Z,2.97
2023-01-04T12:17:32.177Z,4.97
2023-01-04T12:20:39.233Z,6.05
2023-01-04T12:23:44.752Z,3.53
2023-01-04T12:26:50.742Z,5.50
2023-01-04T12:29:57.646Z,4.28
2023-01-04T12:33:25.818Z,4.03
2023-01-04T12:39:44.482Z,2.92
2023-01-04T12:43:20.963Z,4.35
2023-01-04T12:46:53.709Z,2.70
2023-01-04T12:50:07.757Z,3.75
2023-01-04T12:53:33.088Z,2.58
2023-01-04T12:56:53.020Z,2.65
2023-01-04T12:59:59.726Z,3.47
2023-01-04T13:03:21.633Z,4.38
2023-01-04T13:06:31.108Z,2.92
2023-01-04T13:09:36.316Z,10.60
2023-01-04T13:12:53.560Z,2.35
2023-01-04T13:16:05.483Z,1.85
2023-01-04T13:19:13.599Z,3.28
2023-01-04T13:22:30.134Z,3.42
2023-01-04T13:25:36.379Z,2.58
2023-01-04T13:28:41.627Z,3.67
2023-01-04T13:31:49.921Z,3.40
2023-01-04T13:34:56.620Z,3.03
2023-01-04T13:38:04.814Z,3.97
2023-01-04T13:44:18.759Z,4.72
2023-01-04T13:47:24.277Z,4.20
2023-01-04T13:50:34.471Z,3.35
2023-01-04T13:53:42.395Z,5.45
2023-01-04T13:56:53.501Z,4.88
2023-01-04T14:00:00.944Z,6.65
2023-01-04T14:03:10.148Z,5.30
2023-01-04T14:06:20.392Z,5.80
2023-01-04T14:09:30.157Z,10.15
2023-01-04T14:12:35.181Z,6.30
2023-01-04T14:15:40.690Z,5.97
2023-01-04T14:18:45.899Z,9.05
2023-01-04T14:21:53.276Z,5.68
2023-01-04T14:25:10.112Z,5.90
2023-01-04T14:28:41.550Z,8.85
2023-01-04T14:31:49.897Z,8.88
2023-01-04T14:34:55.487Z,6.82
2023-01-04T14:38:05.766Z,8.50
2023-01-04T14:41:21.698Z,7.63
2023-01-04T14:44:28.614Z,12.32
2023-01-04T14:47:33.992Z,11.77
2023-01-04T14:50:39.085Z,7.20
2023-01-04T14:53:45.046Z,11.65
2023-01-04T14:56:53.311Z,11.00
2023-01-04T15:03:03.726Z,8.70
2023-01-04T15:06:09.470Z,11.75
2023-01-04T15:09:14.868Z,10.20
2023-01-04T15:12:22.755Z,7.65
2023-01-04T15:15:28.197Z,8.07
2023-01-04T15:18:33.821Z,7.85
2023-01-04T15:21:41.454Z,5.18
2023-01-04T15:24:47.351Z,9.82
2023-01-04T15:27:55.201Z,7.63
2023-01-04T15:31:02.068Z,10.90
2023-01-04T15:34:07.650Z,10.05
2023-01-04T15:37:18.449Z,10.88
2023-01-04T15:40:27.561Z,11.73
2023-01-04T15:43:36.642Z,10.00
2023-01-04T15:46:42.387Z,8.95
2023-01-04T15:49:48.041Z,7.38
2023-01-04T15:52:53.432Z,7.68
2023-01-04T15:56:06.938Z,10.73
2023-01-04T15:59:14.868Z,7.15
2023-01-04T16:02:19.916Z,8.32
2023-01-04T16:05:25.836Z,8.23
2023-01-04T16:08:31.013Z,8.18
2023-01-04T16:11:36.466Z,7.78
2023-01-04T16:14:44.387Z,7.65
2023-01-04T16:17:50.160Z,8.48
2023-01-04T16:20:55.513Z,8.45
2023-01-04T16:24:09.245Z,8.60
2023-01-04T16:27:18.766Z,9.23
2023-01-04T16:30:29.807Z,8.10
2023-01-04T16:33:35.815Z,8.25
2023-01-04T16:36:41.243Z,8.95
2023-01-04T16:40:05.972Z,10.38
2023-01-04T16:43:12.066Z,6.70
2023-01-04T16:46:31.445Z,8.90
2023-01-04T16:49:36.896Z,9.02
2023-01-04T16:52:42.581Z,8.35
2023-01-04T16:55:49.663Z,6.55
2023-01-04T16:58:54.871Z,9.30
2023-01-04T17:02:02.856Z,10.70
2023-01-04T17:05:09.215Z,8.07
2023-01-04T17:08:14.660Z,7.88
2023-01-04T17:14:49.134Z,10.18
2023-01-04T17:18:04.785Z,9.55
2023-01-04T17:21:32.596Z,10.30
2023-01-04T17:24:35.981Z,10.68
2023-01-04T17:27:41.545Z,10.32
2023-01-04T17:30:47.319Z,11.52
2023-01-04T17:33:55.488Z,12.00
2023-01-04T17:40:06.186Z,14.45
2023-01-04T17:43:11.757Z,10.35
2023-01-04T17:46:22.848Z,16.67
2023-01-04T17:49:32.545Z,11.73
2023-01-04T17:52:38.052Z,14.32
2023-01-04T17:55:43.300Z,12.38
2023-01-04T17:58:49.315Z,11.52
2023-01-04T18:01:54.913Z,12.23
2023-01-04T18:05:03.097Z,15.02
2023-01-04T18:08:09.151Z,12.90
2023-01-04T18:11:14.741Z,10.25
2023-01-04T18:14:19.933Z,12.57
2023-01-04T18:17:25.633Z,12.48
2023-01-04T18:20:35.284Z,13.60
2023-01-04T18:23:44.040Z,16.67
2023-01-04T18:30:19.239Z,12.13
2023-01-04T18:33:24.872Z,11.75
2023-01-04T18:36:37.691Z,13.00
2023-01-04T18:39:46.233Z,9.70
2023-01-04T18:42:51.814Z,13.88
2023-01-04T18:45:57.040Z,11.32
2023-01-04T18:49:03.938Z,14.32
2023-01-04T18:52:12.084Z,10.95
2023-01-04T18:55:17.420Z,16.35
2023-01-04T18:58:22.993Z,16.80
2023-01-04T19:01:31.546Z,12.15
2023-01-04T19:07:44.630Z,15.20
2023-01-04T19:10:50.161Z,14.18
2023-01-04T19:13:55.468Z,14.18
2023-01-04T19:17:00.940Z,17.13
2023-01-04T19:20:06.876Z,15.20
2023-01-04T19:23:15.243Z,10.75
2023-01-04T19:29:25.696Z,11.63
2023-01-04T19:32:33.658Z,13.10
2023-01-04T19:35:43.081Z,15.00
2023-01-04T19:38:51.055Z,13.63
2023-01-04T19:41:57.370Z,20.80
2023-01-04T19:45:02.750Z,19.17
2023-01-04T19:48:09.216Z,18.23
2023-01-04T19:51:15.389Z,17.13
2023-01-04T19:54:25.703Z,22.60
2023-01-04T19:57:31.199Z,19.02
2023-01-04T20:00:37.070Z,20.85
2023-01-04T20:03:42.336Z,18.15
2023-01-04T20:06:48.124Z,15.18
2023-01-04T20:09:55.969Z,13.02
2023-01-04T20:13:01.218Z,12.95
2023-01-04T20:16:07.825Z,21.13
2023-01-04T20:19:13.002Z,13.40
2023-01-04T20:22:18.360Z,14.15
2023-01-04T20:25:26.370Z,12.60
2023-01-04T20:28:32.022Z,12.15
2023-01-04T20:31:43.798Z,19.02
2023-01-04T20:34:51.125Z,10.82
2023-01-04T20:37:58.141Z,8.95
2023-01-04T20:41:06.367Z,10.05
2023-01-04T20:44:11.955Z,9.05
2023-01-04T20:47:17.379Z,12.00
2023-01-04T20:50:22.782Z,7.85
2023-01-04T20:53:30.362Z,6.30
2023-01-04T20:56:39.396Z,6.27
2023-01-04T20:59:45.464Z,5.65
2023-01-04T21:02:50.838Z,6.95
2023-01-04T21:05:56.354Z,7.97
2023-01-04T21:09:01.634Z,6.15
2023-01-04T21:12:09.798Z,7.07
2023-01-04T21:15:15.363Z,6.88
2023-01-04T21:18:20.679Z,8.13
2023-01-04T21:21:25.960Z,6.03
2023-01-04T21:24:31.166Z,5.50
2023-01-04T21:27:39.421Z,4.38
2023-01-04T21:30:45.542Z,4.60
2023-01-04T21:33:51.164Z,3.92
2023-01-04T21:36:56.674Z,5.50
2023-01-04T21:40:02.315Z,4.18
2023-01-04T21:43:11.437Z,4.57
2023-01-04T21:46:18.272Z,4.53
2023-01-04T21:49:23.337Z,2.53
2023-01-04T21:52:28.751Z,3.83
2023-01-04T21:55:34.822Z,3.33
2023-01-04T21:58:43.317Z,3.53
2023-01-04T22:01:48.963Z,2.65
2023-01-04T22:04:54.336Z,4.93
2023-01-04T22:07:59.710Z,2.03
2023-01-04T22:11:05.501Z,3.05
2023-01-04T22:14:13.212Z,3.13
2023-01-04T22:17:18.645Z,4.43
2023-01-04T22:20:24.419Z,2.22
2023-01-04T22:23:29.902Z,2.67
2023-01-04T22:26:35.195Z,3.35
2023-01-04T22:29:43.225Z,2.63
2023-01-04T22:32:49.941Z,2.58
2023-01-04T22:35:57.856Z,1.55
2023-01-04T22:39:03.165Z,1.95
2023-01-04T22:42:08.735Z,0.77
2023-01-04T22:45:16.712Z,1.85
2023-01-04T22:48:22.138Z,1.25
2023-01-04T22:51:28.330Z,0.88
2023-01-04T22:54:34.282Z,2.65
2023-01-04T22:57:39.514Z,2.15
2023-01-04T23:00:47.532Z,2.65
2023-01-04T23:03:55.030Z,1.65
2023-01-04T23:07:00.887Z,5.27
2023-01-04T23:10:06.000Z,1.30
2023-01-04T23:13:11.432Z,3.08
2023-01-04T23:16:20.171Z,1.73
2023-01-04T23:19:26.403Z,1.42
2023-01-04T23:22:31.754Z,1.45
2023-01-04T23:25:37.946Z,1.63
2023-01-04T23:28:43.297Z,1.08
2023-01-04T23:31:51.148Z,1.45
2023-01-04T23:34:56.463Z,1.88
2023-01-04T23:38:01.937Z,1.15
2023-01-04T23:41:07.594Z,1.00
2023-01-04T23:44:14.262Z,1.10
2023-01-04T23:47:22.121Z,4.68
2023-01-04T23:50:27.745Z,1.73
2023-01-04T23:53:34.105Z,2.28
2023-01-04T23:56:40.237Z,2.38
2023-01-04T23:59:45.706Z,5.22
